JST672 YPDN-YSSY
Flight info
| Callsign | JST672 |
|---|---|
| Flight time | N/A |
| Altitude | 35000 |
| Route | DN Y25 BEBUX T74 VEPAP Y105 TARAL Y59 RIVET |
| Aircraft | A320/M-SDE3FGHIRWY/LB1 |
Departure
| Time | 2026-05-04 03:37 |
|---|---|
| Airport | Darwin International Airport / RAAF Darwin (YPDN) |
Arrival
| Time | N/A |
|---|---|
| Airport | Sydney Kingsford Smith International Airport (YSSY) |
| Time | Latitude | Longitude | Altitude | Speed | Heading |
|---|---|---|---|---|---|
| 2026-05-04 02:57 | -12.40861 | 130.87688 | 128 ft | 0 kts | 19° |
| 2026-05-04 03:10 | -12.40861 | 130.87687 | 128 ft | 0 kts | 19° |
| 2026-05-04 03:28 | -12.40878 | 130.87681 | 122 ft | 4 kts | 19° |
| 2026-05-04 03:28 | -12.40904 | 130.87672 | 124 ft | 4 kts | 19° |
| 2026-05-04 03:28 | -12.40927 | 130.87664 | 126 ft | 4 kts | 12° |
| 2026-05-04 03:28 | -12.40950 | 130.87666 | 124 ft | 4 kts | 304° |
| 2026-05-04 03:29 | -12.40957 | 130.87691 | 125 ft | 4 kts | 273° |
| 2026-05-04 03:29 | -12.40958 | 130.87708 | 123 ft | 0 kts | 279° |
| 2026-05-04 03:31 | -12.40955 | 130.87683 | 124 ft | 6 kts | 271° |
| 2026-05-04 03:31 | -12.40978 | 130.87626 | 125 ft | 11 kts | 233° |
| 2026-05-04 03:32 | -12.41046 | 130.87586 | 127 ft | 12 kts | 200° |
| 2026-05-04 03:32 | -12.41129 | 130.87557 | 127 ft | 13 kts | 198° |
| 2026-05-04 03:32 | -12.41220 | 130.87525 | 128 ft | 14 kts | 198° |
| 2026-05-04 03:32 | -12.41325 | 130.87488 | 128 ft | 17 kts | 199° |
| 2026-05-04 03:33 | -12.41442 | 130.87444 | 127 ft | 19 kts | 209° |
| 2026-05-04 03:33 | -12.41492 | 130.87330 | 128 ft | 19 kts | 278° |
| 2026-05-04 03:33 | -12.41449 | 130.87195 | 126 ft | 21 kts | 289° |
| 2026-05-04 03:33 | -12.41402 | 130.87052 | 125 ft | 22 kts | 290° |
| 2026-05-04 03:34 | -12.41349 | 130.86901 | 126 ft | 23 kts | 289° |
| 2026-05-04 03:34 | -12.41296 | 130.86740 | 126 ft | 24 kts | 289° |
| 2026-05-04 03:34 | -12.41241 | 130.86581 | 124 ft | 21 kts | 290° |
| 2026-05-04 03:34 | -12.41163 | 130.86484 | 128 ft | 16 kts | 339° |
| 2026-05-04 03:35 | -12.41092 | 130.86484 | 127 ft | 9 kts | 16° |
| 2026-05-04 03:35 | -12.41029 | 130.86507 | 129 ft | 10 kts | 19° |
| 2026-05-04 03:35 | -12.40966 | 130.86529 | 128 ft | 10 kts | 19° |
| 2026-05-04 03:35 | -12.40955 | 130.86580 | 126 ft | 3 kts | 109° |
| 2026-05-04 03:36 | -12.40955 | 130.86581 | 126 ft | 0 kts | 109° |
| 2026-05-04 03:36 | -12.40956 | 130.86584 | 127 ft | 4 kts | 109° |
| 2026-05-04 03:36 | -12.41040 | 130.86829 | 126 ft | 71 kts | 109° |
| 2026-05-04 03:36 | -12.41265 | 130.87495 | 127 ft | 125 kts | 109° |
| 2026-05-04 03:37 | -12.41599 | 130.88489 | 127 ft | 169 kts | 109° |
| 2026-05-04 03:37 | -12.42005 | 130.89686 | 477 ft | 179 kts | 110° |
| 2026-05-04 03:37 | -12.42405 | 130.90905 | 1109 ft | 182 kts | 109° |
| 2026-05-04 03:37 | -12.42816 | 130.92136 | 1728 ft | 184 kts | 110° |
| 2026-05-04 03:38 | -12.43252 | 130.93426 | 1998 ft | 203 kts | 109° |
| 2026-05-04 03:38 | -12.43730 | 130.94879 | 2094 ft | 230 kts | 109° |
| 2026-05-04 03:38 | -12.44275 | 130.96503 | 2373 ft | 251 kts | 109° |
| 2026-05-04 03:38 | -12.44853 | 130.98221 | 2992 ft | 258 kts | 109° |
| 2026-05-04 03:39 | -12.45438 | 130.99966 | 3765 ft | 260 kts | 109° |
| 2026-05-04 03:39 | -12.46025 | 131.01718 | 4562 ft | 261 kts | 109° |
| 2026-05-04 03:39 | -12.46617 | 131.03485 | 5310 ft | 263 kts | 109° |
| 2026-05-04 03:39 | -12.47062 | 131.05306 | 6037 ft | 266 kts | 100° |
| 2026-05-04 03:40 | -12.47357 | 131.07188 | 6732 ft | 269 kts | 99° |
| 2026-05-04 03:40 | -12.47654 | 131.09093 | 7368 ft | 273 kts | 99° |
| 2026-05-04 03:40 | -12.47955 | 131.11028 | 7996 ft | 277 kts | 99° |
| 2026-05-04 03:40 | -12.48261 | 131.12987 | 8629 ft | 281 kts | 99° |
| 2026-05-04 03:41 | -12.48573 | 131.14980 | 9235 ft | 286 kts | 99° |
| 2026-05-04 03:41 | -12.48890 | 131.17005 | 9835 ft | 291 kts | 99° |
| 2026-05-04 03:41 | -12.49217 | 131.19080 | 10210 ft | 304 kts | 99° |
| 2026-05-04 03:41 | -12.49564 | 131.21285 | 10326 ft | 324 kts | 99° |
| 2026-05-04 03:42 | -12.49932 | 131.23629 | 10479 ft | 342 kts | 99° |
| 2026-05-04 03:42 | -12.50312 | 131.26064 | 10886 ft | 350 kts | 99° |
| 2026-05-04 03:42 | -12.50699 | 131.28543 | 11365 ft | 355 kts | 98° |
| 2026-05-04 03:42 | -12.51092 | 131.31051 | 11862 ft | 359 kts | 98° |
| 2026-05-04 03:43 | -12.51490 | 131.33592 | 12359 ft | 364 kts | 98° |
| 2026-05-04 03:43 | -12.51893 | 131.36159 | 12867 ft | 367 kts | 98° |
| 2026-05-04 03:43 | -12.52299 | 131.38756 | 13394 ft | 371 kts | 98° |
| 2026-05-04 03:43 | -12.52708 | 131.41374 | 13889 ft | 374 kts | 98° |
| 2026-05-04 03:44 | -12.53115 | 131.43984 | 14314 ft | 378 kts | 98° |
| 2026-05-04 03:44 | -12.53537 | 131.46685 | 14752 ft | 381 kts | 98° |
| 2026-05-04 03:44 | -12.53957 | 131.49377 | 15177 ft | 385 kts | 98° |
| 2026-05-04 03:44 | -12.54373 | 131.52057 | 15600 ft | 388 kts | 98° |
| 2026-05-04 03:45 | -12.54798 | 131.54795 | 16012 ft | 391 kts | 98° |
| 2026-05-04 03:45 | -12.55228 | 131.57563 | 16425 ft | 395 kts | 98° |
| 2026-05-04 03:45 | -12.55661 | 131.60344 | 16839 ft | 398 kts | 98° |
| 2026-05-04 03:45 | -12.56099 | 131.63157 | 17245 ft | 401 kts | 98° |
| 2026-05-04 03:46 | -12.56541 | 131.65987 | 17673 ft | 405 kts | 99° |
| 2026-05-04 03:46 | -12.56986 | 131.68841 | 18090 ft | 408 kts | 99° |
| 2026-05-04 03:46 | -12.57433 | 131.71719 | 18453 ft | 411 kts | 99° |
| 2026-05-04 03:46 | -12.57932 | 131.74612 | 18817 ft | 414 kts | 104° |
| 2026-05-04 03:47 | -12.58715 | 131.77453 | 19197 ft | 416 kts | 106° |
| 2026-05-04 03:47 | -12.59526 | 131.80302 | 19577 ft | 418 kts | 106° |
| 2026-05-04 03:47 | -12.60343 | 131.83169 | 19952 ft | 421 kts | 106° |
| 2026-05-04 03:47 | -12.61163 | 131.86055 | 20336 ft | 423 kts | 106° |
| 2026-05-04 03:48 | -12.61986 | 131.88965 | 20721 ft | 426 kts | 106° |
| 2026-05-04 03:48 | -12.62810 | 131.91882 | 21093 ft | 429 kts | 106° |
| 2026-05-04 03:48 | -12.63643 | 131.94828 | 21461 ft | 431 kts | 106° |
| 2026-05-04 03:48 | -12.64481 | 131.97785 | 21821 ft | 434 kts | 106° |
| 2026-05-04 03:49 | -12.65324 | 132.00763 | 22177 ft | 437 kts | 105° |
| 2026-05-04 03:49 | -12.66170 | 132.03762 | 22525 ft | 439 kts | 105° |
| 2026-05-04 03:49 | -12.67020 | 132.06771 | 22862 ft | 442 kts | 105° |
| 2026-05-04 03:49 | -12.67874 | 132.09797 | 23191 ft | 444 kts | 105° |
| 2026-05-04 03:50 | -12.68722 | 132.12804 | 23501 ft | 447 kts | 105° |
| 2026-05-04 03:50 | -12.69670 | 132.15802 | 23760 ft | 449 kts | 113° |
| 2026-05-04 03:50 | -12.71177 | 132.18603 | 24006 ft | 451 kts | 126° |
| 2026-05-04 03:50 | -12.73244 | 132.21011 | 24255 ft | 451 kts | 139° |
| 2026-05-04 03:51 | -12.75763 | 132.22911 | 24503 ft | 450 kts | 152° |
| 2026-05-04 03:51 | -12.78608 | 132.24227 | 24748 ft | 448 kts | 165° |
| 2026-05-04 03:51 | -12.81636 | 132.24954 | 25003 ft | 447 kts | 172° |
| 2026-05-04 03:51 | -12.84699 | 132.25563 | 25250 ft | 449 kts | 172° |
| 2026-05-04 03:52 | -12.87773 | 132.26180 | 25505 ft | 451 kts | 172° |
| 2026-05-04 03:52 | -12.90862 | 132.26803 | 25753 ft | 453 kts | 172° |
| 2026-05-04 03:52 | -12.93956 | 132.27428 | 26003 ft | 454 kts | 172° |
| 2026-05-04 03:52 | -12.97061 | 132.28053 | 26248 ft | 456 kts | 172° |
| 2026-05-04 03:53 | -12.99134 | 132.28469 | 26405 ft | 457 kts | 172° |
| 2026-05-04 03:53 | -13.03318 | 132.29306 | 26723 ft | 459 kts | 172° |
| 2026-05-04 03:53 | -13.05393 | 132.29720 | 26877 ft | 460 kts | 172° |
| 2026-05-04 03:53 | -13.08547 | 132.30349 | 27110 ft | 462 kts | 172° |
| 2026-05-04 03:54 | -13.11701 | 132.30983 | 27333 ft | 464 kts | 172° |
| 2026-05-04 03:54 | -13.14879 | 132.31625 | 27554 ft | 465 kts | 172° |
| 2026-05-04 03:54 | -13.18059 | 132.32270 | 27778 ft | 467 kts | 172° |
| 2026-05-04 03:54 | -13.21252 | 132.32917 | 28004 ft | 469 kts | 172° |
| 2026-05-04 03:55 | -13.24457 | 132.33563 | 28222 ft | 470 kts | 173° |
| 2026-05-04 03:55 | -13.27672 | 132.34207 | 28464 ft | 471 kts | 173° |
| 2026-05-04 03:55 | -13.30891 | 132.34853 | 28808 ft | 470 kts | 173° |
| 2026-05-04 03:55 | -13.34098 | 132.35497 | 29161 ft | 469 kts | 173° |
| 2026-05-04 03:56 | -13.37297 | 132.36141 | 29499 ft | 469 kts | 173° |
| 2026-05-04 03:56 | -13.40501 | 132.36789 | 29833 ft | 468 kts | 173° |
| 2026-05-04 03:56 | -13.43690 | 132.37434 | 30149 ft | 468 kts | 173° |
| 2026-05-04 03:56 | -13.46883 | 132.38083 | 30437 ft | 467 kts | 173° |
| 2026-05-04 03:57 | -13.50069 | 132.38728 | 30730 ft | 466 kts | 173° |
| 2026-05-04 03:57 | -13.53247 | 132.39367 | 31025 ft | 465 kts | 173° |
| 2026-05-04 03:57 | -13.56416 | 132.40003 | 31324 ft | 464 kts | 173° |
| 2026-05-04 03:57 | -13.59587 | 132.40639 | 31647 ft | 464 kts | 173° |
| 2026-05-04 03:58 | -13.65905 | 132.41918 | 32289 ft | 462 kts | 173° |
| 2026-05-04 03:58 | -13.69056 | 132.42560 | 32619 ft | 461 kts | 173° |
| 2026-05-04 03:58 | -13.72157 | 132.43189 | 32938 ft | 460 kts | 173° |
| 2026-05-04 03:59 | -13.75294 | 132.43822 | 33259 ft | 459 kts | 173° |
| 2026-05-04 03:59 | -13.78435 | 132.44453 | 33583 ft | 458 kts | 173° |
| 2026-05-04 03:59 | -13.81563 | 132.45082 | 33871 ft | 458 kts | 173° |
| 2026-05-04 03:59 | -13.84683 | 132.45712 | 34137 ft | 457 kts | 173° |
| 2026-05-04 04:00 | -13.87803 | 132.46343 | 34391 ft | 456 kts | 173° |
| 2026-05-04 04:00 | -13.90917 | 132.46973 | 34635 ft | 455 kts | 173° |
| 2026-05-04 04:00 | -13.94020 | 132.47603 | 34863 ft | 455 kts | 173° |
| 2026-05-04 04:00 | -13.97125 | 132.48229 | 34933 ft | 456 kts | 173° |
| 2026-05-04 04:01 | -14.03434 | 132.49499 | 34948 ft | 467 kts | 173° |
| 2026-05-04 04:01 | -14.09872 | 132.50805 | 34951 ft | 474 kts | 173° |
| 2026-05-04 04:02 | -14.16353 | 132.52124 | 34950 ft | 475 kts | 173° |
| 2026-05-04 04:02 | -14.22839 | 132.53444 | 34952 ft | 475 kts | 173° |
| 2026-05-04 04:03 | -14.29321 | 132.54757 | 34958 ft | 475 kts | 173° |
| 2026-05-04 04:03 | -14.35809 | 132.56078 | 34963 ft | 475 kts | 173° |
| 2026-05-04 04:04 | -14.42255 | 132.57391 | 34972 ft | 475 kts | 173° |
| 2026-05-04 04:04 | -14.48745 | 132.58709 | 34968 ft | 475 kts | 173° |
| 2026-05-04 04:05 | -14.55234 | 132.60023 | 34970 ft | 475 kts | 173° |
| 2026-05-04 04:05 | -14.61726 | 132.61341 | 34978 ft | 475 kts | 173° |
| 2026-05-04 04:06 | -14.68208 | 132.62665 | 34972 ft | 475 kts | 173° |
| 2026-05-04 04:06 | -14.74695 | 132.63989 | 34969 ft | 475 kts | 173° |
| 2026-05-04 04:07 | -14.81172 | 132.65308 | 34967 ft | 474 kts | 173° |
| 2026-05-04 04:07 | -14.87652 | 132.66626 | 34968 ft | 474 kts | 173° |
| 2026-05-04 04:08 | -14.93960 | 132.68725 | 34969 ft | 484 kts | 156° |
| 2026-05-04 04:08 | -14.99576 | 132.72640 | 34961 ft | 488 kts | 147° |
| 2026-05-04 04:09 | -15.05084 | 132.76774 | 34962 ft | 489 kts | 147° |
| 2026-05-04 04:09 | -15.10598 | 132.80899 | 34961 ft | 490 kts | 147° |
| 2026-05-04 04:10 | -15.16125 | 132.85033 | 34966 ft | 490 kts | 147° |
| 2026-05-04 04:10 | -15.21612 | 132.89145 | 34963 ft | 491 kts | 147° |
| 2026-05-04 04:11 | -15.27142 | 132.93287 | 34960 ft | 491 kts | 147° |
| 2026-05-04 04:11 | -15.32675 | 132.97436 | 34963 ft | 491 kts | 147° |
| 2026-05-04 04:12 | -15.38210 | 133.01591 | 34962 ft | 491 kts | 147° |
| 2026-05-04 04:12 | -15.43745 | 133.05751 | 34962 ft | 492 kts | 147° |
| 2026-05-04 04:13 | -15.49286 | 133.09921 | 34962 ft | 492 kts | 147° |
| 2026-05-04 04:13 | -15.54828 | 133.14098 | 34963 ft | 493 kts | 147° |
| 2026-05-04 04:14 | -15.60382 | 133.18281 | 34963 ft | 493 kts | 147° |
| 2026-05-04 04:14 | -15.65933 | 133.22468 | 34963 ft | 494 kts | 147° |
| 2026-05-04 04:15 | -15.71495 | 133.26656 | 34963 ft | 494 kts | 147° |
| 2026-05-04 04:15 | -15.77057 | 133.30846 | 34964 ft | 494 kts | 147° |
| 2026-05-04 04:16 | -15.82615 | 133.35050 | 34964 ft | 494 kts | 147° |
| 2026-05-04 04:16 | -15.88181 | 133.39263 | 34961 ft | 495 kts | 147° |
| 2026-05-04 04:17 | -15.93739 | 133.43470 | 34957 ft | 495 kts | 147° |
| 2026-05-04 04:17 | -15.99275 | 133.47653 | 34963 ft | 495 kts | 147° |
| 2026-05-04 04:18 | -16.04852 | 133.51862 | 34960 ft | 495 kts | 147° |
| 2026-05-04 04:18 | -16.10421 | 133.56078 | 34961 ft | 496 kts | 147° |
| 2026-05-04 04:19 | -16.15993 | 133.60316 | 34964 ft | 496 kts | 147° |
| 2026-05-04 04:19 | -16.21567 | 133.64559 | 34963 ft | 497 kts | 147° |
| 2026-05-04 04:20 | -16.27149 | 133.68804 | 34968 ft | 497 kts | 147° |
| 2026-05-04 04:20 | -16.32742 | 133.73049 | 34966 ft | 498 kts | 147° |
| 2026-05-04 04:21 | -16.38343 | 133.77300 | 34973 ft | 498 kts | 147° |
| 2026-05-04 04:21 | -16.43940 | 133.81561 | 34971 ft | 499 kts | 147° |
| 2026-05-04 04:22 | -16.49546 | 133.85831 | 34975 ft | 499 kts | 147° |
| 2026-05-04 04:22 | -16.55115 | 133.90082 | 34977 ft | 500 kts | 147° |
| 2026-05-04 04:23 | -16.60725 | 133.94364 | 34984 ft | 500 kts | 147° |
| 2026-05-04 04:23 | -16.66345 | 133.98662 | 34986 ft | 501 kts | 147° |
| 2026-05-04 04:24 | -16.71971 | 134.02972 | 34990 ft | 501 kts | 147° |
| 2026-05-04 04:24 | -16.77597 | 134.07274 | 34991 ft | 502 kts | 147° |
| 2026-05-04 04:25 | -16.83226 | 134.11586 | 34994 ft | 502 kts | 147° |
| 2026-05-04 04:25 | -16.88861 | 134.15909 | 34996 ft | 503 kts | 146° |
| 2026-05-04 04:26 | -16.94503 | 134.20237 | 34996 ft | 503 kts | 146° |
| 2026-05-04 04:26 | -17.00139 | 134.24565 | 34998 ft | 503 kts | 146° |
| 2026-05-04 04:27 | -17.05744 | 134.28866 | 35000 ft | 503 kts | 146° |
| 2026-05-04 04:27 | -17.11388 | 134.33194 | 34996 ft | 503 kts | 146° |
| 2026-05-04 04:28 | -17.17032 | 134.37535 | 34995 ft | 504 kts | 146° |
| 2026-05-04 04:28 | -17.22676 | 134.41889 | 35000 ft | 504 kts | 146° |
| 2026-05-04 04:29 | -17.28316 | 134.46242 | 35000 ft | 504 kts | 146° |
| 2026-05-04 04:29 | -17.33961 | 134.50589 | 34999 ft | 504 kts | 146° |
| 2026-05-04 04:30 | -17.39607 | 134.54949 | 34997 ft | 504 kts | 146° |
| 2026-05-04 04:30 | -17.45264 | 134.59320 | 34995 ft | 505 kts | 146° |
| 2026-05-04 04:31 | -17.50910 | 134.63695 | 34994 ft | 505 kts | 146° |
| 2026-05-04 04:31 | -17.56525 | 134.68043 | 34994 ft | 506 kts | 146° |
| 2026-05-04 04:32 | -17.62186 | 134.72421 | 34999 ft | 506 kts | 146° |
| 2026-05-04 04:32 | -17.67855 | 134.76809 | 35000 ft | 507 kts | 146° |
| 2026-05-04 04:33 | -17.73527 | 134.81208 | 35008 ft | 507 kts | 146° |
| 2026-05-04 04:33 | -17.79208 | 134.85618 | 35004 ft | 508 kts | 146° |
| 2026-05-04 04:34 | -17.84885 | 134.90034 | 35011 ft | 508 kts | 146° |
| 2026-05-04 04:34 | -17.90528 | 134.94424 | 35008 ft | 508 kts | 146° |
| 2026-05-04 04:35 | -17.96213 | 134.98840 | 35016 ft | 508 kts | 146° |
| 2026-05-04 04:35 | -18.01894 | 135.03264 | 35003 ft | 508 kts | 147° |
| 2026-05-04 04:36 | -18.07571 | 135.07691 | 35004 ft | 508 kts | 147° |
| 2026-05-04 04:36 | -18.13257 | 135.12122 | 35007 ft | 509 kts | 147° |
| 2026-05-04 04:37 | -18.24654 | 135.21022 | 35018 ft | 511 kts | 147° |
| 2026-05-04 04:38 | -18.30361 | 135.25485 | 35018 ft | 511 kts | 147° |
| 2026-05-04 04:38 | -18.36061 | 135.29954 | 35019 ft | 511 kts | 147° |
| 2026-05-04 04:39 | -18.41770 | 135.34429 | 35019 ft | 512 kts | 147° |
| 2026-05-04 04:39 | -18.47449 | 135.38876 | 35021 ft | 512 kts | 147° |
| 2026-05-04 04:40 | -18.53165 | 135.43360 | 35022 ft | 512 kts | 147° |
| 2026-05-04 04:40 | -18.58920 | 135.47871 | 35026 ft | 512 kts | 147° |
| 2026-05-04 04:41 | -18.64634 | 135.52366 | 35025 ft | 513 kts | 147° |
| 2026-05-04 04:41 | -18.70311 | 135.56848 | 35028 ft | 513 kts | 147° |
| 2026-05-04 04:42 | -18.76026 | 135.61351 | 35027 ft | 513 kts | 147° |
| 2026-05-04 04:42 | -18.81759 | 135.65853 | 35027 ft | 514 kts | 147° |
| 2026-05-04 04:43 | -18.87497 | 135.70369 | 35033 ft | 515 kts | 147° |
| 2026-05-04 04:43 | -18.93234 | 135.74897 | 35036 ft | 516 kts | 147° |
| 2026-05-04 04:44 | -18.98975 | 135.79450 | 35039 ft | 516 kts | 147° |
| 2026-05-04 04:44 | -19.03752 | 135.83238 | 35044 ft | 516 kts | 147° |
| 2026-05-04 04:45 | -19.09511 | 135.87786 | 35039 ft | 517 kts | 147° |
| 2026-05-04 04:47 | -19.29704 | 136.03793 | 35054 ft | 519 kts | 147° |
| 2026-05-04 04:47 | -19.35488 | 136.08387 | 35059 ft | 520 kts | 147° |
| 2026-05-04 04:48 | -19.41276 | 136.12997 | 35068 ft | 521 kts | 147° |
| 2026-05-04 04:49 | -19.55784 | 136.24541 | 35076 ft | 522 kts | 147° |
| 2026-05-04 04:49 | -19.61551 | 136.29143 | 35077 ft | 522 kts | 147° |
| 2026-05-04 04:50 | -19.67353 | 136.33782 | 35075 ft | 523 kts | 147° |
| 2026-05-04 04:50 | -19.73164 | 136.38428 | 35080 ft | 523 kts | 147° |
| 2026-05-04 04:51 | -19.78979 | 136.43065 | 35081 ft | 523 kts | 147° |
| 2026-05-04 04:51 | -19.84797 | 136.47728 | 35085 ft | 524 kts | 147° |
| 2026-05-04 04:52 | -19.90610 | 136.52406 | 35085 ft | 524 kts | 147° |
| 2026-05-04 04:52 | -19.96426 | 136.57079 | 35083 ft | 524 kts | 147° |
| 2026-05-04 04:53 | -20.02249 | 136.61753 | 35098 ft | 524 kts | 147° |
| 2026-05-04 04:53 | -20.08053 | 136.66413 | 35116 ft | 521 kts | 147° |
| 2026-05-04 04:54 | -20.13822 | 136.71051 | 35118 ft | 519 kts | 147° |
| 2026-05-04 04:54 | -20.19541 | 136.75652 | 35116 ft | 518 kts | 147° |
| 2026-05-04 04:55 | -20.25289 | 136.80283 | 35110 ft | 518 kts | 147° |
| 2026-05-04 04:55 | -20.31023 | 136.84918 | 35107 ft | 518 kts | 147° |
| 2026-05-04 04:56 | -20.36776 | 136.89563 | 35111 ft | 518 kts | 146° |
| 2026-05-04 04:56 | -20.42518 | 136.94215 | 35111 ft | 519 kts | 146° |
| 2026-05-04 04:57 | -20.48267 | 136.98872 | 35108 ft | 519 kts | 147° |
| 2026-05-04 04:57 | -20.54029 | 137.03527 | 35111 ft | 519 kts | 147° |
| 2026-05-04 04:58 | -20.59792 | 137.08196 | 35110 ft | 520 kts | 146° |
| 2026-05-04 04:58 | -20.65542 | 137.12877 | 35112 ft | 520 kts | 146° |
| 2026-05-04 04:59 | -20.71263 | 137.17534 | 35114 ft | 520 kts | 146° |
| 2026-05-04 04:59 | -20.77032 | 137.22214 | 35113 ft | 521 kts | 146° |
| 2026-05-04 05:00 | -20.82810 | 137.26903 | 35117 ft | 522 kts | 146° |
| 2026-05-04 05:01 | -20.91482 | 137.33982 | 35125 ft | 522 kts | 146° |
| 2026-05-04 05:01 | -20.97256 | 137.38703 | 35127 ft | 523 kts | 146° |
| 2026-05-04 05:02 | -21.03043 | 137.43424 | 35120 ft | 523 kts | 146° |
| 2026-05-04 05:02 | -21.08790 | 137.48116 | 35120 ft | 524 kts | 146° |
| 2026-05-04 05:03 | -21.14580 | 137.52860 | 35118 ft | 524 kts | 146° |
| 2026-05-04 05:04 | -21.26177 | 137.62370 | 35127 ft | 525 kts | 146° |
| 2026-05-04 05:04 | -21.31991 | 137.67135 | 35116 ft | 526 kts | 146° |
| 2026-05-04 05:06 | -21.55267 | 137.86305 | 35121 ft | 528 kts | 146° |
| 2026-05-04 05:07 | -21.61056 | 137.91088 | 35110 ft | 528 kts | 146° |
| 2026-05-04 05:07 | -21.66866 | 137.95952 | 35111 ft | 529 kts | 145° |
| 2026-05-04 05:09 | -21.93008 | 138.17926 | 35118 ft | 530 kts | 145° |
| 2026-05-04 05:10 | -21.98821 | 138.22827 | 35117 ft | 531 kts | 145° |
| 2026-05-04 05:10 | -22.04639 | 138.27735 | 35116 ft | 531 kts | 145° |
| 2026-05-04 05:11 | -22.10461 | 138.32648 | 35112 ft | 531 kts | 145° |
| 2026-05-04 05:11 | -22.16281 | 138.37565 | 35117 ft | 532 kts | 145° |
| 2026-05-04 05:12 | -22.22065 | 138.42455 | 35114 ft | 532 kts | 145° |
| 2026-05-04 05:12 | -22.27894 | 138.47399 | 35118 ft | 533 kts | 145° |
| 2026-05-04 05:13 | -22.33724 | 138.52339 | 35123 ft | 533 kts | 146° |
| 2026-05-04 05:13 | -22.39561 | 138.57280 | 35123 ft | 533 kts | 146° |
| 2026-05-04 05:14 | -22.45399 | 138.62229 | 35121 ft | 533 kts | 145° |
| 2026-05-04 05:14 | -22.51230 | 138.67188 | 35124 ft | 534 kts | 145° |
| 2026-05-04 05:15 | -22.57058 | 138.72170 | 35127 ft | 534 kts | 145° |
| 2026-05-04 05:15 | -22.62853 | 138.77115 | 35126 ft | 534 kts | 145° |
| 2026-05-04 05:16 | -22.68732 | 138.82125 | 35127 ft | 535 kts | 145° |
| 2026-05-04 05:16 | -22.74534 | 138.87084 | 35125 ft | 535 kts | 145° |
| 2026-05-04 05:17 | -22.80386 | 138.92089 | 35122 ft | 536 kts | 145° |
| 2026-05-04 05:17 | -22.86243 | 138.97110 | 35126 ft | 536 kts | 145° |
| 2026-05-04 05:18 | -22.92096 | 139.02125 | 35126 ft | 536 kts | 145° |
| 2026-05-04 05:18 | -22.97957 | 139.07147 | 35128 ft | 537 kts | 145° |
| 2026-05-04 05:19 | -23.03817 | 139.12180 | 35127 ft | 537 kts | 145° |
| 2026-05-04 05:19 | -23.09680 | 139.17225 | 35126 ft | 538 kts | 145° |
| 2026-05-04 05:20 | -23.15544 | 139.22282 | 35128 ft | 538 kts | 145° |
| 2026-05-04 05:20 | -23.21368 | 139.27305 | 35132 ft | 538 kts | 145° |
| 2026-05-04 05:21 | -23.27234 | 139.32365 | 35130 ft | 538 kts | 145° |
| 2026-05-04 05:21 | -23.33099 | 139.37436 | 35132 ft | 539 kts | 145° |
| 2026-05-04 05:22 | -23.38974 | 139.42518 | 35135 ft | 540 kts | 145° |
| 2026-05-04 05:22 | -23.44856 | 139.47610 | 35134 ft | 540 kts | 145° |
| 2026-05-04 05:23 | -23.50730 | 139.52709 | 35133 ft | 540 kts | 145° |
| 2026-05-04 05:23 | -23.56605 | 139.57812 | 35137 ft | 540 kts | 145° |
| 2026-05-04 05:24 | -23.62484 | 139.62921 | 35135 ft | 540 kts | 145° |
| 2026-05-04 05:24 | -23.68372 | 139.68029 | 35138 ft | 541 kts | 145° |
| 2026-05-04 05:25 | -23.74211 | 139.73116 | 35130 ft | 541 kts | 145° |
| 2026-05-04 05:25 | -23.80093 | 139.78256 | 35129 ft | 541 kts | 145° |
| 2026-05-04 05:26 | -23.85973 | 139.83389 | 35143 ft | 541 kts | 145° |
| 2026-05-04 05:26 | -23.91862 | 139.88536 | 35128 ft | 542 kts | 145° |
| 2026-05-04 05:28 | -24.15355 | 140.09145 | 35142 ft | 542 kts | 145° |
| 2026-05-04 05:29 | -24.21240 | 140.14320 | 35145 ft | 543 kts | 145° |
| 2026-05-04 05:29 | -24.27128 | 140.19507 | 35140 ft | 543 kts | 145° |
| 2026-05-04 05:31 | -24.50639 | 140.40270 | 35143 ft | 543 kts | 145° |
| 2026-05-04 05:32 | -24.56526 | 140.45492 | 35140 ft | 543 kts | 144° |
| 2026-05-04 05:33 | -24.65343 | 140.53335 | 35140 ft | 544 kts | 145° |
| 2026-05-04 05:33 | -24.71229 | 140.58557 | 35141 ft | 544 kts | 145° |
| 2026-05-04 05:34 | -24.77113 | 140.63782 | 35142 ft | 544 kts | 145° |
| 2026-05-04 05:34 | -24.82991 | 140.69021 | 35137 ft | 544 kts | 145° |
| 2026-05-04 05:35 | -24.88830 | 140.74230 | 35143 ft | 544 kts | 145° |
| 2026-05-04 05:35 | -24.94704 | 140.79491 | 35144 ft | 544 kts | 145° |
| 2026-05-04 05:36 | -25.00570 | 140.84744 | 35144 ft | 543 kts | 145° |
| 2026-05-04 05:36 | -25.06439 | 140.89991 | 35139 ft | 543 kts | 145° |
| 2026-05-04 05:37 | -25.12309 | 140.95239 | 35137 ft | 543 kts | 145° |
| 2026-05-04 05:37 | -25.18164 | 141.00503 | 35129 ft | 543 kts | 144° |
| 2026-05-04 05:38 | -25.25968 | 141.07527 | 35134 ft | 543 kts | 144° |
| 2026-05-04 05:38 | -25.32810 | 141.13710 | 35133 ft | 544 kts | 144° |
| 2026-05-04 05:39 | -25.40618 | 141.20753 | 35132 ft | 544 kts | 145° |
| 2026-05-04 05:40 | -25.49416 | 141.28686 | 35127 ft | 544 kts | 144° |
| 2026-05-04 05:40 | -25.55283 | 141.33992 | 35126 ft | 544 kts | 144° |
| 2026-05-04 05:41 | -25.61140 | 141.39309 | 35126 ft | 544 kts | 144° |
| 2026-05-04 05:41 | -25.66996 | 141.44636 | 35123 ft | 545 kts | 144° |
| 2026-05-04 05:42 | -25.72855 | 141.49972 | 35126 ft | 545 kts | 144° |
| 2026-05-04 05:42 | -25.78714 | 141.55307 | 35125 ft | 545 kts | 144° |
| 2026-05-04 05:43 | -25.84580 | 141.60641 | 35124 ft | 545 kts | 144° |
| 2026-05-04 05:45 | -26.07950 | 141.82018 | 35122 ft | 545 kts | 144° |
| 2026-05-04 05:47 | -26.31339 | 142.03533 | 35118 ft | 545 kts | 144° |
| 2026-05-04 05:47 | -26.37192 | 142.08921 | 35114 ft | 545 kts | 144° |
| 2026-05-04 05:48 | -26.43035 | 142.14325 | 35112 ft | 546 kts | 144° |
| 2026-05-04 05:48 | -26.48840 | 142.19696 | 35110 ft | 546 kts | 144° |
| 2026-05-04 05:49 | -26.54682 | 142.25107 | 35109 ft | 546 kts | 144° |
| 2026-05-04 05:49 | -26.60519 | 142.30527 | 35109 ft | 546 kts | 144° |
| 2026-05-04 05:51 | -26.83860 | 142.52252 | 35105 ft | 546 kts | 144° |
| 2026-05-04 05:52 | -26.89692 | 142.57704 | 35104 ft | 546 kts | 144° |
| 2026-05-04 05:52 | -26.95522 | 142.63165 | 35113 ft | 546 kts | 144° |
| 2026-05-04 05:54 | -27.18806 | 142.85020 | 35095 ft | 547 kts | 144° |
| 2026-05-04 05:55 | -27.24638 | 142.90504 | 35096 ft | 547 kts | 144° |
| 2026-05-04 05:55 | -27.30467 | 142.96007 | 35095 ft | 547 kts | 144° |
| 2026-05-04 05:56 | -27.36298 | 143.01504 | 35097 ft | 547 kts | 144° |
| 2026-05-04 05:56 | -27.42132 | 143.07024 | 35093 ft | 547 kts | 144° |
| 2026-05-04 05:57 | -27.47957 | 143.12546 | 35096 ft | 547 kts | 144° |
| 2026-05-04 05:57 | -27.53779 | 143.18070 | 35096 ft | 547 kts | 144° |
| 2026-05-04 05:58 | -27.59602 | 143.23613 | 35095 ft | 548 kts | 144° |
| 2026-05-04 05:58 | -27.65426 | 143.29149 | 35093 ft | 548 kts | 144° |
| 2026-05-04 05:59 | -27.71252 | 143.34692 | 35093 ft | 548 kts | 144° |
| 2026-05-04 05:59 | -27.77039 | 143.40210 | 35094 ft | 548 kts | 144° |
| 2026-05-04 06:00 | -27.82857 | 143.45781 | 35093 ft | 548 kts | 144° |
| 2026-05-04 06:00 | -27.88678 | 143.51353 | 35091 ft | 548 kts | 144° |
| 2026-05-04 06:01 | -27.94497 | 143.56925 | 35089 ft | 548 kts | 144° |
| 2026-05-04 06:03 | -28.17768 | 143.79324 | 35088 ft | 549 kts | 144° |
| 2026-05-04 06:05 | -28.43919 | 144.04629 | 35085 ft | 550 kts | 144° |
| 2026-05-04 06:06 | -28.49735 | 144.10281 | 35090 ft | 550 kts | 144° |
| 2026-05-04 06:06 | -28.55555 | 144.15940 | 35091 ft | 550 kts | 144° |
| 2026-05-04 06:07 | -28.61369 | 144.21608 | 35090 ft | 550 kts | 144° |
| 2026-05-04 06:07 | -28.67140 | 144.27244 | 35091 ft | 550 kts | 144° |
| 2026-05-04 06:08 | -28.72953 | 144.32927 | 35095 ft | 550 kts | 144° |
| 2026-05-04 06:08 | -28.78761 | 144.38615 | 35091 ft | 550 kts | 144° |
| 2026-05-04 06:09 | -28.84570 | 144.44310 | 35093 ft | 551 kts | 144° |
| 2026-05-04 06:11 | -29.08550 | 144.65692 | 35095 ft | 542 kts | 155° |
| 2026-05-04 06:13 | -29.34000 | 144.84160 | 35094 ft | 543 kts | 155° |
| 2026-05-04 06:14 | -29.56313 | 145.00477 | 35093 ft | 543 kts | 155° |
| 2026-05-04 06:15 | -29.62642 | 145.05107 | 35093 ft | 543 kts | 155° |
| 2026-05-04 06:15 | -29.69010 | 145.09786 | 35093 ft | 543 kts | 155° |
| 2026-05-04 06:16 | -29.75382 | 145.14477 | 35093 ft | 543 kts | 155° |
| 2026-05-04 06:16 | -29.81754 | 145.19171 | 35091 ft | 544 kts | 155° |
| 2026-05-04 06:17 | -29.88120 | 145.23869 | 35089 ft | 544 kts | 155° |
| 2026-05-04 06:17 | -29.94492 | 145.28575 | 35092 ft | 544 kts | 155° |
| 2026-05-04 06:18 | -30.00852 | 145.33286 | 35091 ft | 544 kts | 155° |
| 2026-05-04 06:20 | -30.26302 | 145.52183 | 35096 ft | 543 kts | 155° |
| 2026-05-04 06:21 | -30.42145 | 145.64020 | 35091 ft | 543 kts | 155° |
| 2026-05-04 06:22 | -30.48498 | 145.68773 | 35097 ft | 543 kts | 155° |
| 2026-05-04 06:25 | -30.92825 | 146.02163 | 35093 ft | 541 kts | 154° |
| 2026-05-04 06:26 | -30.99096 | 146.06911 | 35094 ft | 541 kts | 154° |
| 2026-05-04 06:26 | -31.05401 | 146.11702 | 35091 ft | 540 kts | 154° |
| 2026-05-04 06:27 | -31.21126 | 146.23685 | 35097 ft | 539 kts | 154° |
| 2026-05-04 06:28 | -31.27411 | 146.28485 | 35096 ft | 539 kts | 154° |
| 2026-05-04 06:28 | -31.33685 | 146.33288 | 35097 ft | 538 kts | 154° |
| 2026-05-04 06:29 | -31.39950 | 146.38087 | 35095 ft | 538 kts | 154° |
| 2026-05-04 06:29 | -31.45151 | 146.42066 | 35097 ft | 537 kts | 154° |
| 2026-05-04 06:30 | -31.51394 | 146.46862 | 35096 ft | 537 kts | 153° |
| 2026-05-04 06:30 | -31.57629 | 146.51670 | 35095 ft | 536 kts | 153° |
| 2026-05-04 06:31 | -31.63855 | 146.56472 | 35088 ft | 535 kts | 153° |
| 2026-05-04 06:31 | -31.70070 | 146.61271 | 35086 ft | 535 kts | 153° |
| 2026-05-04 06:33 | -31.94858 | 146.80493 | 35094 ft | 532 kts | 153° |
| 2026-05-04 06:34 | -32.01027 | 146.85301 | 35089 ft | 531 kts | 153° |
| 2026-05-04 06:34 | -32.07178 | 146.90105 | 35089 ft | 530 kts | 153° |
| 2026-05-04 06:36 | -32.31658 | 147.09263 | 35092 ft | 527 kts | 152° |
| 2026-05-04 06:37 | -32.37758 | 147.14059 | 35090 ft | 526 kts | 152° |
| 2026-05-04 06:37 | -32.43848 | 147.18857 | 35090 ft | 525 kts | 152° |
| 2026-05-04 06:38 | -32.49931 | 147.23650 | 35089 ft | 525 kts | 152° |
| 2026-05-04 06:40 | -32.74176 | 147.42848 | 35088 ft | 523 kts | 152° |
| 2026-05-04 06:40 | -32.80220 | 147.47652 | 35091 ft | 522 kts | 152° |
| 2026-05-04 06:41 | -32.86264 | 147.52468 | 35092 ft | 522 kts | 152° |
| 2026-05-04 06:41 | -32.92256 | 147.57252 | 35086 ft | 522 kts | 152° |
| 2026-05-04 06:42 | -32.98279 | 147.62067 | 35082 ft | 522 kts | 152° |